Portada
METAR-TAF:

METAR-TAF

Aeroports :

Danbury Municipal Airport

Danbury, Connecticut, Estats Units d'Amèrica

latitud: 41-22-18N, longitud: 073-29-04W, altitud: 139 m

Observació

L'informe es va fer fa 15 minuts, a les 09:53 UTC
Vent 7 kt del Oest amb ràfegues de 21 kt
Temperatura 5°C
Humitat 65%
Pressió 1000 hPa
Visibilitat: 16.1 km
Núvols disperses a una alçada de 3600 ft
Cel ennuvolat a una alçada de 4800 ft

METAR: KDXR 150953Z AUTO 26007G21KT 10SM SCT036 BKN048 05/M01 A2953 RMK AO2 PK WND 28027/0911 SLP001 T00501011

Hora: 05:08 (10:08 UTC)


TAF: manca

Observacions i pronòstics meteorològics de més de 4000 aeroports (METAR i TAF).

Les estacions disponibles són els punts grocs i vermells al mapa.

Posi el ratolí al punt desitjat per veure el nom de l'estació.

Feu clic per veure les observacions i els pronòstics meteorològics.

Per canviar el mapa: feu clic els botons verds amb una creu de color negre per apropar; al botó verd amb un guió per allunyar la imatge; o en les fletxes verdes per a mapes adjacents.


METAR-TAF: